Snow Camp, North Carolina
Current Conditions -  °F | °C
As of 9:54 PM on Thursday 27 Nov 2014 (Local Time) from KBUY Reporting Station
Clear Clear  
Wind Chill: 31°   Ceiling: Unl
Heat Index: 37°   Visibility: 10mi
Dew Point: 25°   Wind: 8mph
Humidity: 62%   Direction: 330°NNW
Pressure: 30.24"   Gusts: NA
Location:  35.89°N, 79.43°W
Report Text: KBUY 280254Z AUTO 33007KT 10SM CLR 03/M04 A3024 RMK AO2 SLP242 T00281039 51013
Loading
Personal Weather Stations






























Interactive Weather Map New forecast layout! Learn more

10-Day Weather Forecast

Advertisements
Track Severe Weather on mobile